Austin (LCRA Redbud)'s Hourly Summary for Monday, April 17, 2017
Hour Temp
(f)
RH
(%)
Solar Rad.
(MJ/m2)
Rainfall
(in)
Wind
(mph)
4/17/2017 12:00 AM 72 78 0 0 0.94
4/17/2017 1:00 AM 71 82 0 0 1.39
4/17/2017 2:00 AM 71 81 0 0 1.78
4/17/2017 3:00 AM 70 85 0 0 0.83
4/17/2017 4:00 AM 70 87 0 0 0.19
4/17/2017 5:00 AM 69 89 0 0 0.01
4/17/2017 6:00 AM 68 93 0 0 0
4/17/2017 7:00 AM 68 96 0 0 0
4/17/2017 8:00 AM 68 94 0.1 0 0.3
4/17/2017 9:00 AM 71 86 0.55 0 1.79
4/17/2017 10:00 AM 73 80 0.93 0 2.41
4/17/2017 11:00 AM 74 78 0.65 0 2.02
4/17/2017 12:00 PM 75 70 1.13 0 2.06
4/17/2017 1:00 PM 78 64 1.59 0 2.05
4/17/2017 2:00 PM 79 60 1.55 0 2.66
4/17/2017 3:00 PM 77 66 0.75 0 0.98
4/17/2017 4:00 PM 72 66 0.35 0 3.89
4/17/2017 5:00 PM 69 73 0.26 0 1.47
4/17/2017 6:00 PM 69 76 0.32 0 0.25
4/17/2017 7:00 PM 69 77 0.44 0 0.95
4/17/2017 8:00 PM 69 73 0.14 0 0.28
4/17/2017 9:00 PM 67 78 0 0 0.36
4/17/2017 10:00 PM 68 73 0 0 2.32
4/17/2017 11:00 PM 66 74 0 0 0.25
Data Summary 70 78 8.76 0.00 1.22